sensor_id;sensor_type;location;lat;lon;timestamp;pressure;altitude;pressure_sealevel;temperature;humidity
62248;BME280;48237;50.140;8.486;2023-02-12T00:02:10;101689.46;;;4.16;100.00
62248;BME280;48237;50.140;8.486;2023-02-12T00:04:38;101696.91;;;4.10;100.00
62248;BME280;48237;50.140;8.486;2023-02-12T00:07:05;101696.46;;;4.54;100.00
62248;BME280;48237;50.140;8.486;2023-02-12T00:09:32;101683.88;;;6.65;96.36
62248;BME280;48237;50.140;8.486;2023-02-12T00:11:59;101685.59;;;6.20;99.21
62248;BME280;48237;50.140;8.486;2023-02-12T00:14:26;101682.73;;;6.96;92.93
62248;BME280;48237;50.140;8.486;2023-02-12T00:16:54;101679.94;;;7.45;89.74
62248;BME280;48237;50.140;8.486;2023-02-12T00:19:22;101675.98;;;7.16;90.22
62248;BME280;48237;50.140;8.486;2023-02-12T00:21:48;101674.94;;;8.29;83.20
62248;BME280;48237;50.140;8.486;2023-02-12T00:24:16;101672.92;;;8.74;81.51
62248;BME280;48237;50.140;8.486;2023-02-12T00:26:43;101674.14;;;8.15;82.02
62248;BME280;48237;50.140;8.486;2023-02-12T00:29:10;101677.46;;;7.87;83.64
62248;BME280;48237;50.140;8.486;2023-02-12T00:31:37;101682.39;;;7.56;86.24
62248;BME280;48237;50.140;8.486;2023-02-12T00:34:05;101682.14;;;8.68;81.67
62248;BME280;48237;50.140;8.486;2023-02-12T00:36:32;101680.33;;;8.07;83.33
62248;BME280;48237;50.140;8.486;2023-02-12T00:38:59;101670.85;;;8.15;83.47
62248;BME280;48237;50.140;8.486;2023-02-12T00:41:27;101671.47;;;8.06;84.25
62248;BME280;48237;50.140;8.486;2023-02-12T00:43:55;101676.87;;;7.71;85.79
62248;BME280;48237;50.140;8.486;2023-02-12T00:46:23;101688.09;;;5.33;100.00
62248;BME280;48237;50.140;8.486;2023-02-12T00:48:51;101679.84;;;7.13;89.58
62248;BME280;48237;50.140;8.486;2023-02-12T00:51:21;101671.87;;;8.00;84.14
62248;BME280;48237;50.140;8.486;2023-02-12T00:53:48;101675.34;;;7.80;85.45
62248;BME280;48237;50.140;8.486;2023-02-12T00:56:16;101676.43;;;8.35;82.34
62248;BME280;48237;50.140;8.486;2023-02-12T00:58:43;101675.83;;;7.65;85.13
62248;BME280;48237;50.140;8.486;2023-02-12T01:01:12;101678.20;;;7.92;83.20
62248;BME280;48237;50.140;8.486;2023-02-12T01:03:40;101674.84;;;8.70;79.32
62248;BME280;48237;50.140;8.486;2023-02-12T01:06:07;101672.19;;;8.76;78.78
62248;BME280;48237;50.140;8.486;2023-02-12T01:08:35;101676.20;;;8.48;79.17
62248;BME280;48237;50.140;8.486;2023-02-12T01:11:05;101672.38;;;8.62;77.58
62248;BME280;48237;50.140;8.486;2023-02-12T01:13:33;101673.38;;;7.67;82.86
62248;BME280;48237;50.140;8.486;2023-02-12T01:16:04;101671.03;;;7.70;83.47
62248;BME280;48237;50.140;8.486;2023-02-12T01:18:33;101664.60;;;9.18;76.99
62248;BME280;48237;50.140;8.486;2023-02-12T01:21:00;101663.73;;;8.48;78.59
62248;BME280;48237;50.140;8.486;2023-02-12T01:23:27;101666.68;;;7.85;80.16
62248;BME280;48237;50.140;8.486;2023-02-12T01:25:58;101665.89;;;8.67;78.33
62248;BME280;48237;50.140;8.486;2023-02-12T01:28:26;101663.88;;;8.51;77.69
62248;BME280;48237;50.140;8.486;2023-02-12T01:30:53;101665.49;;;7.20;83.00
62248;BME280;48237;50.140;8.486;2023-02-12T01:33:22;101660.17;;;6.77;86.85
62248;BME280;48237;50.140;8.486;2023-02-12T01:35:49;101661.95;;;7.80;83.31
62248;BME280;48237;50.140;8.486;2023-02-12T01:38:16;101663.98;;;8.02;82.05
62248;BME280;48237;50.140;8.486;2023-02-12T01:40:44;101669.99;;;8.25;78.72
62248;BME280;48237;50.140;8.486;2023-02-12T01:43:12;101667.32;;;7.82;81.46
62248;BME280;48237;50.140;8.486;2023-02-12T01:45:47;101669.78;;;7.17;84.50
62248;BME280;48237;50.140;8.486;2023-02-12T01:48:16;101670.95;;;6.85;87.35
62248;BME280;48237;50.140;8.486;2023-02-12T01:50:47;101674.40;;;6.34;90.13
62248;BME280;48237;50.140;8.486;2023-02-12T01:53:16;101675.75;;;7.12;86.12
62248;BME280;48237;50.140;8.486;2023-02-12T01:55:50;101668.83;;;8.63;80.37
62248;BME280;48237;50.140;8.486;2023-02-12T01:58:20;101664.43;;;8.16;80.96
62248;BME280;48237;50.140;8.486;2023-02-12T02:00:50;101659.51;;;8.23;79.55
62248;BME280;48237;50.140;8.486;2023-02-12T02:03:18;101658.90;;;8.69;78.99
62248;BME280;48237;50.140;8.486;2023-02-12T02:05:51;101661.47;;;8.48;77.52
62248;BME280;48237;50.140;8.486;2023-02-12T02:08:22;101660.73;;;8.93;77.48
62248;BME280;48237;50.140;8.486;2023-02-12T02:10:50;101665.22;;;7.79;79.48
62248;BME280;48237;50.140;8.486;2023-02-12T02:13:19;101665.38;;;8.28;78.97
62248;BME280;48237;50.140;8.486;2023-02-12T02:15:50;101662.78;;;8.85;77.47
62248;BME280;48237;50.140;8.486;2023-02-12T02:18:26;101662.99;;;8.00;80.64
62248;BME280;48237;50.140;8.486;2023-02-12T02:22:20;101665.76;;;8.23;82.30
62248;BME280;48237;50.140;8.486;2023-02-12T02:26:42;101671.00;;;6.70;87.87
62248;BME280;48237;50.140;8.486;2023-02-12T02:29:31;101668.48;;;6.94;86.69
62248;BME280;48237;50.140;8.486;2023-02-12T02:32:07;101665.56;;;8.04;80.32
62248;BME280;48237;50.140;8.486;2023-02-12T02:34:40;101662.69;;;7.23;84.18
62248;BME280;48237;50.140;8.486;2023-02-12T02:37:17;101660.82;;;8.29;80.02
62248;BME280;48237;50.140;8.486;2023-02-12T02:39:49;101661.20;;;7.70;82.15
62248;BME280;48237;50.140;8.486;2023-02-12T02:42:24;101665.38;;;7.21;83.36
62248;BME280;48237;50.140;8.486;2023-02-12T02:44:56;101661.90;;;8.30;79.15
62248;BME280;48237;50.140;8.486;2023-02-12T02:47:30;101657.00;;;8.07;79.19
62248;BME280;48237;50.140;8.486;2023-02-12T02:50:02;101656.42;;;8.51;76.33
62248;BME280;48237;50.140;8.486;2023-02-12T02:52:38;101653.66;;;8.19;78.62
62248;BME280;48237;50.140;8.486;2023-02-12T02:55:07;101651.71;;;8.23;79.05
62248;BME280;48237;50.140;8.486;2023-02-12T02:57:40;101651.14;;;8.05;79.52
62248;BME280;48237;50.140;8.486;2023-02-12T03:00:14;101654.29;;;6.50;85.20
62248;BME280;48237;50.140;8.486;2023-02-12T03:02:48;101655.11;;;5.98;90.31
62248;BME280;48237;50.140;8.486;2023-02-12T03:05:22;101654.95;;;6.83;86.69
62248;BME280;48237;50.140;8.486;2023-02-12T03:07:56;101650.03;;;7.58;81.34
62248;BME280;48237;50.140;8.486;2023-02-12T03:10:28;101652.54;;;8.18;80.00
62248;BME280;48237;50.140;8.486;2023-02-12T03:13:02;101652.69;;;8.27;78.35
62248;BME280;48237;50.140;8.486;2023-02-12T03:15:37;101652.89;;;7.33;82.13
62248;BME280;48237;50.140;8.486;2023-02-12T03:18:08;101652.57;;;8.32;80.56
62248;BME280;48237;50.140;8.486;2023-02-12T03:20:40;101655.12;;;7.38;84.20
62248;BME280;48237;50.140;8.486;2023-02-12T03:23:13;101657.51;;;6.70;85.92
62248;BME280;48237;50.140;8.486;2023-02-12T03:25:48;101653.39;;;8.14;80.15
62248;BME280;48237;50.140;8.486;2023-02-12T03:28:19;101651.55;;;7.93;79.93
62248;BME280;48237;50.140;8.486;2023-02-12T03:30:52;101658.52;;;7.96;80.08
62248;BME280;48237;50.140;8.486;2023-02-12T03:33:29;101663.96;;;6.96;84.66
62248;BME280;48237;50.140;8.486;2023-02-12T03:36:05;101661.24;;;6.89;84.78
62248;BME280;48237;50.140;8.486;2023-02-12T03:38:37;101660.83;;;6.94;85.25
62248;BME280;48237;50.140;8.486;2023-02-12T03:41:10;101658.39;;;8.19;80.44
62248;BME280;48237;50.140;8.486;2023-02-12T03:43:47;101660.16;;;7.40;83.31
62248;BME280;48237;50.140;8.486;2023-02-12T03:46:19;101663.45;;;8.27;79.60
62248;BME280;48237;50.140;8.486;2023-02-12T03:48:56;101667.01;;;8.13;78.60
62248;BME280;48237;50.140;8.486;2023-02-12T03:51:29;101663.07;;;8.38;76.97
62248;BME280;48237;50.140;8.486;2023-02-12T03:54:00;101662.93;;;8.61;76.58
62248;BME280;48237;50.140;8.486;2023-02-12T03:56:33;101666.37;;;8.05;77.85
62248;BME280;48237;50.140;8.486;2023-02-12T03:59:03;101670.79;;;8.15;78.14
62248;BME280;48237;50.140;8.486;2023-02-12T04:01:31;101672.67;;;7.17;82.40
62248;BME280;48237;50.140;8.486;2023-02-12T04:04:03;101673.24;;;8.06;78.64
62248;BME280;48237;50.140;8.486;2023-02-12T04:06:31;101677.82;;;8.24;78.38
62248;BME280;48237;50.140;8.486;2023-02-12T04:09:02;101680.44;;;8.21;79.41
62248;BME280;48237;50.140;8.486;2023-02-12T04:11:38;101683.06;;;7.01;84.97
62248;BME280;48237;50.140;8.486;2023-02-12T04:14:17;101685.14;;;8.21;79.42
62248;BME280;48237;50.140;8.486;2023-02-12T04:16:50;101684.79;;;8.01;79.01
62248;BME280;48237;50.140;8.486;2023-02-12T04:19:27;101688.98;;;7.98;80.61
62248;BME280;48237;50.140;8.486;2023-02-12T04:22:12;101692.36;;;7.15;84.12
62248;BME280;48237;50.140;8.486;2023-02-12T04:24:49;101692.23;;;7.67;81.53
62248;BME280;48237;50.140;8.486;2023-02-12T04:27:25;101694.72;;;7.55;83.57
62248;BME280;48237;50.140;8.486;2023-02-12T04:30:01;101693.33;;;8.31;81.28
62248;BME280;48237;50.140;8.486;2023-02-12T04:32:34;101693.29;;;8.43;79.78
62248;BME280;48237;50.140;8.486;2023-02-12T04:35:08;101697.47;;;7.20;83.39
62248;BME280;48237;50.140;8.486;2023-02-12T04:37:42;101700.80;;;8.02;82.22
62248;BME280;48237;50.140;8.486;2023-02-12T04:40:12;101699.45;;;7.93;81.13
62248;BME280;48237;50.140;8.486;2023-02-12T04:42:41;101698.27;;;8.10;81.78
62248;BME280;48237;50.140;8.486;2023-02-12T04:45:09;101704.91;;;8.03;79.99
62248;BME280;48237;50.140;8.486;2023-02-12T04:47:36;101705.27;;;8.22;79.78
62248;BME280;48237;50.140;8.486;2023-02-12T04:50:05;101710.53;;;7.74;80.50
62248;BME280;48237;50.140;8.486;2023-02-12T04:52:32;101711.21;;;7.02;84.16
62248;BME280;48237;50.140;8.486;2023-02-12T04:55:00;101706.91;;;7.81;81.58
62248;BME280;48237;50.140;8.486;2023-02-12T04:57:27;101706.89;;;8.34;79.81
62248;BME280;48237;50.140;8.486;2023-02-12T04:59:54;101704.74;;;8.23;79.95
62248;BME280;48237;50.140;8.486;2023-02-12T05:02:22;101705.96;;;8.45;79.40
62248;BME280;48237;50.140;8.486;2023-02-12T05:04:49;101703.92;;;8.46;79.02
62248;BME280;48237;50.140;8.486;2023-02-12T05:07:17;101700.92;;;8.38;78.84
62248;BME280;48237;50.140;8.486;2023-02-12T05:09:44;101698.16;;;8.14;80.29
62248;BME280;48237;50.140;8.486;2023-02-12T05:12:12;101697.80;;;7.08;82.32
62248;BME280;48237;50.140;8.486;2023-02-12T05:14:39;101695.73;;;6.78;84.07
62248;BME280;48237;50.140;8.486;2023-02-12T05:17:06;101693.18;;;8.54;78.56
62248;BME280;48237;50.140;8.486;2023-02-12T05:19:34;101691.17;;;8.83;77.53
62248;BME280;48237;50.140;8.486;2023-02-12T05:22:01;101692.49;;;8.75;78.49
62248;BME280;48237;50.140;8.486;2023-02-12T05:24:28;101691.44;;;8.18;80.35
62248;BME280;48237;50.140;8.486;2023-02-12T05:26:55;101696.35;;;7.71;82.73
62248;BME280;48237;50.140;8.486;2023-02-12T05:29:22;101700.73;;;6.50;86.92
62248;BME280;48237;50.140;8.486;2023-02-12T05:31:49;101704.43;;;6.62;88.64
62248;BME280;48237;50.140;8.486;2023-02-12T05:34:16;101701.79;;;7.01;87.42
62248;BME280;48237;50.140;8.486;2023-02-12T05:36:43;101695.62;;;7.80;83.60
62248;BME280;48237;50.140;8.486;2023-02-12T05:39:11;101694.46;;;7.18;85.75
62248;BME280;48237;50.140;8.486;2023-02-12T05:41:38;101692.34;;;8.18;81.72
62248;BME280;48237;50.140;8.486;2023-02-12T05:44:05;101694.03;;;8.58;78.95
62248;BME280;48237;50.140;8.486;2023-02-12T05:46:33;101694.56;;;8.22;78.86
62248;BME280;48237;50.140;8.486;2023-02-12T05:48:59;101694.73;;;7.81;80.13
62248;BME280;48237;50.140;8.486;2023-02-12T05:51:26;101702.60;;;7.21;84.09
62248;BME280;48237;50.140;8.486;2023-02-12T05:53:56;101698.55;;;8.12;80.53
62248;BME280;48237;50.140;8.486;2023-02-12T05:56:26;101698.36;;;8.00;79.91
62248;BME280;48237;50.140;8.486;2023-02-12T05:58:55;101703.76;;;6.92;84.80
62248;BME280;48237;50.140;8.486;2023-02-12T06:01:27;101705.91;;;6.84;87.62
62248;BME280;48237;50.140;8.486;2023-02-12T06:03:54;101703.92;;;7.10;86.76
62248;BME280;48237;50.140;8.486;2023-02-12T06:06:24;101703.65;;;8.12;81.94
62248;BME280;48237;50.140;8.486;2023-02-12T06:08:52;101704.05;;;8.70;78.52
62248;BME280;48237;50.140;8.486;2023-02-12T06:11:19;101708.85;;;7.19;84.12
62248;BME280;48237;50.140;8.486;2023-02-12T06:13:47;101710.98;;;7.00;85.32
62248;BME280;48237;50.140;8.486;2023-02-12T06:16:17;101711.33;;;7.00;85.82
62248;BME280;48237;50.140;8.486;2023-02-12T06:18:45;101708.63;;;7.02;85.06
62248;BME280;48237;50.140;8.486;2023-02-12T06:21:13;101712.37;;;6.99;85.42
62248;BME280;48237;50.140;8.486;2023-02-12T06:23:40;101715.84;;;7.16;84.89
62248;BME280;48237;50.140;8.486;2023-02-12T06:26:07;101718.02;;;6.76;86.21
62248;BME280;48237;50.140;8.486;2023-02-12T06:28:35;101719.66;;;8.14;81.86
62248;BME280;48237;50.140;8.486;2023-02-12T06:31:02;101719.67;;;8.69;78.97
62248;BME280;48237;50.140;8.486;2023-02-12T06:33:30;101718.74;;;8.64;78.52
62248;BME280;48237;50.140;8.486;2023-02-12T06:35:58;101724.29;;;8.56;78.03
62248;BME280;48237;50.140;8.486;2023-02-12T06:38:28;101724.36;;;8.81;76.97
62248;BME280;48237;50.140;8.486;2023-02-12T06:40:55;101727.65;;;8.83;78.24
62248;BME280;48237;50.140;8.486;2023-02-12T06:43:22;101732.27;;;7.70;79.97
62248;BME280;48237;50.140;8.486;2023-02-12T06:45:50;101733.71;;;7.95;79.14
62248;BME280;48237;50.140;8.486;2023-02-12T06:48:17;101737.74;;;8.17;78.41
62248;BME280;48237;50.140;8.486;2023-02-12T06:50:44;101740.16;;;8.10;80.46
62248;BME280;48237;50.140;8.486;2023-02-12T06:53:11;101743.48;;;7.78;82.38
62248;BME280;48237;50.140;8.486;2023-02-12T06:55:38;101745.48;;;7.67;83.24
62248;BME280;48237;50.140;8.486;2023-02-12T06:58:05;101745.98;;;7.78;81.51
62248;BME280;48237;50.140;8.486;2023-02-12T07:00:32;101751.79;;;7.58;84.21
62248;BME280;48237;50.140;8.486;2023-02-12T07:03:00;101750.64;;;7.03;86.68
62248;BME280;48237;50.140;8.486;2023-02-12T07:05:26;101752.15;;;7.63;84.37
62248;BME280;48237;50.140;8.486;2023-02-12T07:07:54;101751.41;;;7.94;83.11
62248;BME280;48237;50.140;8.486;2023-02-12T07:10:21;101750.83;;;7.54;82.91
62248;BME280;48237;50.140;8.486;2023-02-12T07:12:48;101755.02;;;7.32;85.96
62248;BME280;48237;50.140;8.486;2023-02-12T07:15:16;101753.60;;;8.62;81.66
62248;BME280;48237;50.140;8.486;2023-02-12T07:17:43;101756.12;;;8.24;81.59
62248;BME280;48237;50.140;8.486;2023-02-12T07:20:11;101759.46;;;8.48;80.92
62248;BME280;48237;50.140;8.486;2023-02-12T07:22:38;101764.60;;;8.78;79.37
62248;BME280;48237;50.140;8.486;2023-02-12T07:25:05;101758.96;;;8.46;80.93
62248;BME280;48237;50.140;8.486;2023-02-12T07:27:35;101767.57;;;7.83;84.33
62248;BME280;48237;50.140;8.486;2023-02-12T07:30:03;101769.31;;;7.61;84.10
62248;BME280;48237;50.140;8.486;2023-02-12T07:32:31;101761.00;;;8.72;80.77
62248;BME280;48237;50.140;8.486;2023-02-12T07:34:59;101760.28;;;8.43;79.84
62248;BME280;48237;50.140;8.486;2023-02-12T07:37:26;101760.15;;;8.48;80.68
62248;BME280;48237;50.140;8.486;2023-02-12T07:39:53;101765.97;;;8.18;81.79
62248;BME280;48237;50.140;8.486;2023-02-12T07:42:20;101767.25;;;8.43;81.45
62248;BME280;48237;50.140;8.486;2023-02-12T07:44:48;101770.79;;;7.76;83.04
62248;BME280;48237;50.140;8.486;2023-02-12T07:47:15;101770.20;;;7.90;82.36
62248;BME280;48237;50.140;8.486;2023-02-12T07:49:42;101771.54;;;8.28;80.90
62248;BME280;48237;50.140;8.486;2023-02-12T07:52:09;101773.80;;;8.76;79.18
62248;BME280;48237;50.140;8.486;2023-02-12T07:54:36;101774.47;;;7.92;82.17
62248;BME280;48237;50.140;8.486;2023-02-12T07:57:03;101775.20;;;7.99;84.00
62248;BME280;48237;50.140;8.486;2023-02-12T07:59:30;101777.96;;;7.65;85.85
62248;BME280;48237;50.140;8.486;2023-02-12T08:01:57;101777.27;;;8.59;82.49
62248;BME280;48237;50.140;8.486;2023-02-12T08:04:25;101778.55;;;9.10;82.07
62248;BME280;48237;50.140;8.486;2023-02-12T08:06:54;101782.30;;;8.19;84.67
62248;BME280;48237;50.140;8.486;2023-02-12T08:09:24;101782.03;;;9.11;80.95
62248;BME280;48237;50.140;8.486;2023-02-12T08:11:52;101782.00;;;9.20;79.14
62248;BME280;48237;50.140;8.486;2023-02-12T08:14:20;101783.40;;;8.83;81.19
62248;BME280;48237;50.140;8.486;2023-02-12T08:16:48;101783.31;;;8.19;83.83
62248;BME280;48237;50.140;8.486;2023-02-12T08:19:15;101789.92;;;7.48;87.74
62248;BME280;48237;50.140;8.486;2023-02-12T08:21:43;101787.27;;;8.06;85.01
62248;BME280;48237;50.140;8.486;2023-02-12T08:24:10;101785.03;;;8.57;83.92
62248;BME280;48237;50.140;8.486;2023-02-12T08:26:38;101787.45;;;9.09;82.42
62248;BME280;48237;50.140;8.486;2023-02-12T08:29:07;101792.51;;;8.95;82.69
62248;BME280;48237;50.140;8.486;2023-02-12T08:31:36;101790.75;;;9.25;80.48
62248;BME280;48237;50.140;8.486;2023-02-12T08:34:04;101789.69;;;9.67;80.20
62248;BME280;48237;50.140;8.486;2023-02-12T08:36:36;101795.65;;;8.94;80.69
62248;BME280;48237;50.140;8.486;2023-02-12T08:39:05;101793.97;;;8.92;80.70
62248;BME280;48237;50.140;8.486;2023-02-12T08:41:33;101792.70;;;7.58;89.86
62248;BME280;48237;50.140;8.486;2023-02-12T08:44:03;101796.79;;;6.86;95.87
62248;BME280;48237;50.140;8.486;2023-02-12T08:46:32;101798.68;;;7.49;95.72
62248;BME280;48237;50.140;8.486;2023-02-12T08:49:02;101797.23;;;7.21;95.70
62248;BME280;48237;50.140;8.486;2023-02-12T08:51:31;101800.79;;;5.56;100.00
62248;BME280;48237;50.140;8.486;2023-02-12T08:54:01;101798.24;;;7.07;100.00
62248;BME280;48237;50.140;8.486;2023-02-12T08:56:30;101798.28;;;7.67;93.97
62248;BME280;48237;50.140;8.486;2023-02-12T08:58:59;101806.17;;;6.61;98.38
62248;BME280;48237;50.140;8.486;2023-02-12T09:01:30;101815.69;;;5.08;100.00
62248;BME280;48237;50.140;8.486;2023-02-12T09:03:58;101809.76;;;5.97;100.00
62248;BME280;48237;50.140;8.486;2023-02-12T09:06:26;101813.34;;;4.47;100.00
62248;BME280;48237;50.140;8.486;2023-02-12T09:08:54;101810.98;;;5.42;100.00
62248;BME280;48237;50.140;8.486;2023-02-12T09:11:24;101813.14;;;4.27;100.00
62248;BME280;48237;50.140;8.486;2023-02-12T09:13:52;101809.96;;;5.85;100.00
62248;BME280;48237;50.140;8.486;2023-02-12T09:16:19;101818.72;;;4.96;100.00
62248;BME280;48237;50.140;8.486;2023-02-12T09:18:46;101819.59;;;4.37;100.00
62248;BME280;48237;50.140;8.486;2023-02-12T09:21:15;101822.43;;;4.38;100.00
62248;BME280;48237;50.140;8.486;2023-02-12T09:23:42;101823.63;;;4.48;100.00
62248;BME280;48237;50.140;8.486;2023-02-12T09:26:12;101828.44;;;4.48;100.00
62248;BME280;48237;50.140;8.486;2023-02-12T09:28:40;101832.82;;;4.84;100.00
62248;BME280;48237;50.140;8.486;2023-02-12T09:31:09;101829.92;;;3.94;100.00
62248;BME280;48237;50.140;8.486;2023-02-12T09:33:37;101828.14;;;5.26;100.00
62248;BME280;48237;50.140;8.486;2023-02-12T09:36:07;101832.90;;;4.54;100.00
62248;BME280;48237;50.140;8.486;2023-02-12T09:38:36;101836.58;;;3.53;100.00
62248;BME280;48237;50.140;8.486;2023-02-12T09:41:17;101838.93;;;3.40;100.00
62248;BME280;48237;50.140;8.486;2023-02-12T09:43:53;101839.74;;;3.59;100.00
62248;BME280;48237;50.140;8.486;2023-02-12T09:46:27;101840.25;;;3.12;100.00
62248;BME280;48237;50.140;8.486;2023-02-12T09:49:02;101835.97;;;4.84;100.00
62248;BME280;48237;50.140;8.486;2023-02-12T09:51:34;101835.36;;;3.79;100.00
62248;BME280;48237;50.140;8.486;2023-02-12T09:54:04;101835.51;;;4.77;100.00
62248;BME280;48237;50.140;8.486;2023-02-12T09:56:34;101834.87;;;5.28;100.00
62248;BME280;48237;50.140;8.486;2023-02-12T09:59:05;101830.77;;;5.81;100.00
62248;BME280;48237;50.140;8.486;2023-02-12T10:01:32;101833.71;;;3.98;100.00
62248;BME280;48237;50.140;8.486;2023-02-12T10:04:00;101836.46;;;5.61;100.00
62248;BME280;48237;50.140;8.486;2023-02-12T10:06:29;101831.99;;;6.81;100.00
62248;BME280;48237;50.140;8.486;2023-02-12T10:09:41;101839.98;;;5.04;100.00
62248;BME280;48237;50.140;8.486;2023-02-12T10:12:22;101845.21;;;4.93;100.00
62248;BME280;48237;50.140;8.486;2023-02-12T10:15:07;101845.00;;;5.74;100.00
62248;BME280;48237;50.140;8.486;2023-02-12T10:17:41;101835.76;;;7.24;100.00
62248;BME280;48237;50.140;8.486;2023-02-12T10:21:00;101837.51;;;6.97;100.00
62248;BME280;48237;50.140;8.486;2023-02-12T10:23:57;101847.66;;;4.58;100.00
62248;BME280;48237;50.140;8.486;2023-02-12T10:26:35;101844.61;;;5.03;100.00
62248;BME280;48237;50.140;8.486;2023-02-12T10:29:11;101840.52;;;6.57;100.00
62248;BME280;48237;50.140;8.486;2023-02-12T10:31:43;101844.27;;;4.54;100.00
62248;BME280;48237;50.140;8.486;2023-02-12T10:34:16;101849.34;;;4.49;100.00
62248;BME280;48237;50.140;8.486;2023-02-12T10:36:46;101846.37;;;6.25;100.00
62248;BME280;48237;50.140;8.486;2023-02-12T10:39:20;101838.12;;;6.24;100.00
62248;BME280;48237;50.140;8.486;2023-02-12T10:41:54;101833.20;;;6.32;100.00
62248;BME280;48237;50.140;8.486;2023-02-12T10:44:22;101831.91;;;6.18;100.00
62248;BME280;48237;50.140;8.486;2023-02-12T10:46:49;101835.34;;;5.15;100.00
62248;BME280;48237;50.140;8.486;2023-02-12T10:49:19;101828.85;;;5.84;100.00
62248;BME280;48237;50.140;8.486;2023-02-12T10:51:58;101831.64;;;4.87;100.00
62248;BME280;48237;50.140;8.486;2023-02-12T10:54:33;101828.39;;;5.64;100.00
62248;BME280;48237;50.140;8.486;2023-02-12T10:57:13;101829.69;;;5.37;100.00
62248;BME280;48237;50.140;8.486;2023-02-12T10:59:42;101822.36;;;5.99;100.00
62248;BME280;48237;50.140;8.486;2023-02-12T11:02:23;101818.13;;;5.80;100.00
62248;BME280;48237;50.140;8.486;2023-02-12T11:04:52;101810.83;;;6.11;100.00
62248;BME280;48237;50.140;8.486;2023-02-12T11:07:22;101808.85;;;5.34;100.00
62248;BME280;48237;50.140;8.486;2023-02-12T11:09:52;101800.35;;;8.00;100.00
62248;BME280;48237;50.140;8.486;2023-02-12T11:12:28;101798.74;;;7.98;100.00
62248;BME280;48237;50.140;8.486;2023-02-12T11:14:59;101802.53;;;5.50;100.00
62248;BME280;48237;50.140;8.486;2023-02-12T11:17:32;101805.12;;;4.41;100.00
62248;BME280;48237;50.140;8.486;2023-02-12T11:20:06;101801.84;;;5.31;100.00
62248;BME280;48237;50.140;8.486;2023-02-12T11:22:34;101789.34;;;7.43;100.00
62248;BME280;48237;50.140;8.486;2023-02-12T11:25:14;101791.23;;;6.49;100.00
62248;BME280;48237;50.140;8.486;2023-02-12T11:27:42;101790.61;;;6.50;100.00
62248;BME280;48237;50.140;8.486;2023-02-12T11:30:14;101785.26;;;6.99;100.00
62248;BME280;48237;50.140;8.486;2023-02-12T11:32:42;101779.86;;;8.32;100.00
62248;BME280;48237;50.140;8.486;2023-02-12T11:35:13;101777.49;;;9.36;95.62
62248;BME280;48237;50.140;8.486;2023-02-12T11:37:42;101773.20;;;9.69;92.60
62248;BME280;48237;50.140;8.486;2023-02-12T11:40:18;101771.16;;;9.65;92.33
62248;BME280;48237;50.140;8.486;2023-02-12T11:42:49;101772.09;;;7.11;100.00
62248;BME280;48237;50.140;8.486;2023-02-12T11:45:20;101771.80;;;6.32;100.00
62248;BME280;48237;50.140;8.486;2023-02-12T11:47:49;101764.87;;;7.61;100.00
62248;BME280;48237;50.140;8.486;2023-02-12T11:50:24;101760.54;;;9.90;94.22
62248;BME280;48237;50.140;8.486;2023-02-12T11:52:54;101761.71;;;9.23;94.09
62248;BME280;48237;50.140;8.486;2023-02-12T11:55:24;101761.66;;;9.61;93.92
62248;BME280;48237;50.140;8.486;2023-02-12T11:57:53;101757.56;;;8.25;100.00
62248;BME280;48237;50.140;8.486;2023-02-12T12:00:27;101761.87;;;7.36;100.00
62248;BME280;48237;50.140;8.486;2023-02-12T12:02:59;101757.23;;;6.99;100.00
62248;BME280;48237;50.140;8.486;2023-02-12T12:05:33;101751.04;;;7.64;100.00
62248;BME280;48237;50.140;8.486;2023-02-12T12:08:06;101753.66;;;6.39;100.00
62248;BME280;48237;50.140;8.486;2023-02-12T12:10:41;101751.19;;;8.58;99.22
62248;BME280;48237;50.140;8.486;2023-02-12T12:13:13;101740.23;;;10.56;89.47
62248;BME280;48237;50.140;8.486;2023-02-12T12:15:45;101748.40;;;6.75;100.00
62248;BME280;48237;50.140;8.486;2023-02-12T12:18:20;101743.35;;;8.97;100.00
62248;BME280;48237;50.140;8.486;2023-02-12T12:20:55;101741.99;;;8.78;96.83
62248;BME280;48237;50.140;8.486;2023-02-12T12:23:27;101743.85;;;7.04;100.00
62248;BME280;48237;50.140;8.486;2023-02-12T12:26:03;101732.95;;;9.81;94.16
62248;BME280;48237;50.140;8.486;2023-02-12T12:28:39;101726.73;;;9.87;92.52
62248;BME280;48237;50.140;8.486;2023-02-12T12:31:09;101721.08;;;9.94;89.22
62248;BME280;48237;50.140;8.486;2023-02-12T12:33:42;101726.31;;;8.49;97.86
62248;BME280;48237;50.140;8.486;2023-02-12T12:37:06;101725.33;;;8.51;99.00
62248;BME280;48237;50.140;8.486;2023-02-12T12:39:45;101722.79;;;6.92;100.00
62248;BME280;48237;50.140;8.486;2023-02-12T12:42:34;101721.38;;;7.68;100.00
62248;BME280;48237;50.140;8.486;2023-02-12T12:45:18;101719.25;;;7.97;100.00
62248;BME280;48237;50.140;8.486;2023-02-12T12:48:01;101710.71;;;9.73;93.43
62248;BME280;48237;50.140;8.486;2023-02-12T12:50:43;101712.29;;;9.40;93.80
62248;BME280;48237;50.140;8.486;2023-02-12T12:53:24;101713.24;;;8.80;100.00
62248;BME280;48237;50.140;8.486;2023-02-12T12:56:13;101708.40;;;8.93;97.31
62248;BME280;48237;50.140;8.486;2023-02-12T12:58:56;101705.64;;;7.23;100.00
62248;BME280;48237;50.140;8.486;2023-02-12T13:01:41;101707.20;;;7.46;100.00
62248;BME280;48237;50.140;8.486;2023-02-12T13:04:39;101695.73;;;9.68;93.72
62248;BME280;48237;50.140;8.486;2023-02-12T13:07:23;101701.07;;;7.93;100.00
62248;BME280;48237;50.140;8.486;2023-02-12T13:10:07;101691.01;;;10.18;92.48
62248;BME280;48237;50.140;8.486;2023-02-12T13:13:03;101698.30;;;8.63;95.94
62248;BME280;48237;50.140;8.486;2023-02-12T13:15:35;101695.26;;;8.65;92.86
62248;BME280;48237;50.140;8.486;2023-02-12T13:18:14;101693.68;;;7.31;100.00
62248;BME280;48237;50.140;8.486;2023-02-12T13:20:50;101689.66;;;7.40;100.00
62248;BME280;48237;50.140;8.486;2023-02-12T13:23:28;101684.42;;;7.61;100.00